Terminal Aerodrome Forecast
Issued by NWS

Home | Current Version | Previous Version | Text Only | Print | Product List | Glossary On
Versions: 1 2 3 4 5 6 7 8 9 10 11 12 13 14 15
322
FTUS42 KTBW 121738
TAFPGD
TAF
KPGD 121738Z 1218/1318 25008KT P6SM SKC
     FM130200 27004KT P6SM FEW035
     FM130900 29004KT P6SM SCT035
     FM131200 33004KT P6SM SCT035
     FM131400 36011G18KT P6SM SKC=

USA.gov is the U.S. government's official web portal to all federal, state and local government web resources and services.